sensor_id;sensor_type;location;lat;lon;timestamp;P1;durP1;ratioP1;P2;durP2;ratioP2
76296;SDS011;65104;52.994;6.552;2024-01-27T00:00:35;12.65;;;2.53;;
76296;SDS011;65104;52.994;6.552;2024-01-27T00:03:02;14.93;;;1.73;;
76296;SDS011;65104;52.994;6.552;2024-01-27T00:05:28;8.32;;;1.70;;
76296;SDS011;65104;52.994;6.552;2024-01-27T00:07:56;6.47;;;1.10;;
76296;SDS011;65104;52.994;6.552;2024-01-27T00:12:49;7.93;;;1.45;;
76296;SDS011;65104;52.994;6.552;2024-01-27T00:15:16;7.10;;;1.38;;
76296;SDS011;65104;52.994;6.552;2024-01-27T00:17:42;7.32;;;0.88;;
76296;SDS011;65104;52.994;6.552;2024-01-27T00:20:10;7.45;;;1.17;;
76296;SDS011;65104;52.994;6.552;2024-01-27T00:22:37;5.63;;;1.60;;
76296;SDS011;65104;52.994;6.552;2024-01-27T00:25:05;10.40;;;1.33;;
76296;SDS011;65104;52.994;6.552;2024-01-27T00:27:32;2.53;;;0.80;;
76296;SDS011;65104;52.994;6.552;2024-01-27T00:29:59;10.00;;;1.92;;
76296;SDS011;65104;52.994;6.552;2024-01-27T00:32:26;12.30;;;1.95;;
76296;SDS011;65104;52.994;6.552;2024-01-27T00:34:52;11.32;;;1.95;;
76296;SDS011;65104;52.994;6.552;2024-01-27T00:37:19;5.25;;;1.55;;
76296;SDS011;65104;52.994;6.552;2024-01-27T00:39:45;6.25;;;1.10;;
76296;SDS011;65104;52.994;6.552;2024-01-27T00:42:14;7.85;;;1.30;;
76296;SDS011;65104;52.994;6.552;2024-01-27T00:44:41;3.70;;;1.05;;
76296;SDS011;65104;52.994;6.552;2024-01-27T00:47:08;10.73;;;1.90;;
76296;SDS011;65104;52.994;6.552;2024-01-27T00:49:34;8.02;;;1.60;;
76296;SDS011;65104;52.994;6.552;2024-01-27T00:52:01;8.00;;;1.48;;
76296;SDS011;65104;52.994;6.552;2024-01-27T00:54:27;4.32;;;1.38;;
76296;SDS011;65104;52.994;6.552;2024-01-27T00:56:54;5.40;;;2.10;;
76296;SDS011;65104;52.994;6.552;2024-01-27T00:59:22;5.50;;;1.35;;
76296;SDS011;65104;52.994;6.552;2024-01-27T01:01:49;8.88;;;1.50;;
76296;SDS011;65104;52.994;6.552;2024-01-27T01:04:15;9.15;;;1.30;;
76296;SDS011;65104;52.994;6.552;2024-01-27T01:06:42;8.82;;;1.00;;
76296;SDS011;65104;52.994;6.552;2024-01-27T01:09:09;7.13;;;1.08;;
76296;SDS011;65104;52.994;6.552;2024-01-27T01:11:35;8.18;;;1.48;;
76296;SDS011;65104;52.994;6.552;2024-01-27T01:14:02;9.57;;;2.05;;
76296;SDS011;65104;52.994;6.552;2024-01-27T01:16:30;6.93;;;1.50;;
76296;SDS011;65104;52.994;6.552;2024-01-27T01:18:57;8.93;;;1.95;;
76296;SDS011;65104;52.994;6.552;2024-01-27T01:21:23;7.78;;;1.70;;
76296;SDS011;65104;52.994;6.552;2024-01-27T01:23:50;5.57;;;1.45;;
76296;SDS011;65104;52.994;6.552;2024-01-27T01:26:17;12.20;;;2.17;;
76296;SDS011;65104;52.994;6.552;2024-01-27T01:28:44;8.00;;;1.55;;
76296;SDS011;65104;52.994;6.552;2024-01-27T01:31:10;11.55;;;1.50;;
76296;SDS011;65104;52.994;6.552;2024-01-27T01:33:38;7.28;;;1.95;;
76296;SDS011;65104;52.994;6.552;2024-01-27T01:36:05;6.88;;;1.55;;
76296;SDS011;65104;52.994;6.552;2024-01-27T01:38:31;4.32;;;1.58;;
76296;SDS011;65104;52.994;6.552;2024-01-27T01:40:58;9.00;;;1.50;;
76296;SDS011;65104;52.994;6.552;2024-01-27T01:43:25;8.00;;;1.35;;
76296;SDS011;65104;52.994;6.552;2024-01-27T01:45:52;9.05;;;1.38;;
76296;SDS011;65104;52.994;6.552;2024-01-27T01:48:19;7.95;;;1.45;;
76296;SDS011;65104;52.994;6.552;2024-01-27T01:50:47;4.63;;;1.00;;
76296;SDS011;65104;52.994;6.552;2024-01-27T01:53:14;7.43;;;1.48;;
76296;SDS011;65104;52.994;6.552;2024-01-27T01:55:41;7.10;;;1.33;;
76296;SDS011;65104;52.994;6.552;2024-01-27T01:58:07;8.18;;;1.58;;
76296;SDS011;65104;52.994;6.552;2024-01-27T02:00:34;5.90;;;1.88;;
76296;SDS011;65104;52.994;6.552;2024-01-27T02:03:01;6.57;;;2.30;;
76296;SDS011;65104;52.994;6.552;2024-01-27T02:05:28;4.82;;;1.45;;
76296;SDS011;65104;52.994;6.552;2024-01-27T02:07:56;6.20;;;1.10;;
76296;SDS011;65104;52.994;6.552;2024-01-27T02:10:25;6.88;;;1.90;;
76296;SDS011;65104;52.994;6.552;2024-01-27T02:12:51;6.18;;;1.50;;
76296;SDS011;65104;52.994;6.552;2024-01-27T02:15:18;7.68;;;1.55;;
76296;SDS011;65104;52.994;6.552;2024-01-27T02:17:46;7.60;;;1.10;;
76296;SDS011;65104;52.994;6.552;2024-01-27T02:20:13;2.83;;;1.58;;
76296;SDS011;65104;52.994;6.552;2024-01-27T02:22:40;5.32;;;1.67;;
76296;SDS011;65104;52.994;6.552;2024-01-27T02:25:08;7.35;;;2.20;;
76296;SDS011;65104;52.994;6.552;2024-01-27T02:27:35;6.18;;;2.25;;
76296;SDS011;65104;52.994;6.552;2024-01-27T02:30:01;2.88;;;1.40;;
76296;SDS011;65104;52.994;6.552;2024-01-27T02:32:28;1.58;;;0.68;;
76296;SDS011;65104;52.994;6.552;2024-01-27T02:34:55;6.60;;;1.30;;
76296;SDS011;65104;52.994;6.552;2024-01-27T02:37:21;4.38;;;0.90;;
76296;SDS011;65104;52.994;6.552;2024-01-27T02:39:48;6.00;;;0.93;;
76296;SDS011;65104;52.994;6.552;2024-01-27T02:42:16;7.90;;;1.17;;
76296;SDS011;65104;52.994;6.552;2024-01-27T02:44:42;2.53;;;1.02;;
76296;SDS011;65104;52.994;6.552;2024-01-27T02:47:09;7.45;;;1.27;;
76296;SDS011;65104;52.994;6.552;2024-01-27T02:49:34;5.18;;;1.63;;
76296;SDS011;65104;52.994;6.552;2024-01-27T02:52:01;6.78;;;1.40;;
76296;SDS011;65104;52.994;6.552;2024-01-27T02:54:28;1.92;;;0.85;;
76296;SDS011;65104;52.994;6.552;2024-01-27T02:56:54;5.20;;;1.38;;
76296;SDS011;65104;52.994;6.552;2024-01-27T02:59:23;2.97;;;0.77;;
76296;SDS011;65104;52.994;6.552;2024-01-27T03:04:16;5.88;;;0.50;;
76296;SDS011;65104;52.994;6.552;2024-01-27T03:06:42;2.85;;;0.85;;
76296;SDS011;65104;52.994;6.552;2024-01-27T03:09:10;6.97;;;1.63;;
76296;SDS011;65104;52.994;6.552;2024-01-27T03:11:36;7.65;;;1.00;;
76296;SDS011;65104;52.994;6.552;2024-01-27T03:14:03;6.13;;;1.55;;
76296;SDS011;65104;52.994;6.552;2024-01-27T03:16:31;2.75;;;0.65;;
76296;SDS011;65104;52.994;6.552;2024-01-27T03:21:24;9.95;;;1.35;;
76296;SDS011;65104;52.994;6.552;2024-01-27T03:23:51;5.95;;;1.30;;
76296;SDS011;65104;52.994;6.552;2024-01-27T03:26:18;11.25;;;2.00;;
76296;SDS011;65104;52.994;6.552;2024-01-27T03:28:44;9.57;;;2.50;;
76296;SDS011;65104;52.994;6.552;2024-01-27T03:31:12;2.33;;;0.93;;
76296;SDS011;65104;52.994;6.552;2024-01-27T03:33:40;2.65;;;1.00;;
76296;SDS011;65104;52.994;6.552;2024-01-27T03:38:35;8.55;;;1.80;;
76296;SDS011;65104;52.994;6.552;2024-01-27T03:41:02;4.55;;;1.58;;
76296;SDS011;65104;52.994;6.552;2024-01-27T03:43:29;4.97;;;1.40;;
76296;SDS011;65104;52.994;6.552;2024-01-27T03:45:56;2.58;;;1.10;;
76296;SDS011;65104;52.994;6.552;2024-01-27T03:48:22;8.38;;;1.55;;
76296;SDS011;65104;52.994;6.552;2024-01-27T03:50:50;8.35;;;1.55;;
76296;SDS011;65104;52.994;6.552;2024-01-27T03:55:44;1.27;;;0.95;;
76296;SDS011;65104;52.994;6.552;2024-01-27T03:58:10;8.20;;;1.55;;
76296;SDS011;65104;52.994;6.552;2024-01-27T04:00:37;7.28;;;0.82;;
76296;SDS011;65104;52.994;6.552;2024-01-27T04:03:04;8.32;;;0.98;;
76296;SDS011;65104;52.994;6.552;2024-01-27T04:05:30;6.60;;;1.48;;
76296;SDS011;65104;52.994;6.552;2024-01-27T04:07:58;2.45;;;0.80;;
76296;SDS011;65104;52.994;6.552;2024-01-27T04:10:25;3.33;;;0.63;;
76296;SDS011;65104;52.994;6.552;2024-01-27T04:12:52;9.45;;;1.15;;
76296;SDS011;65104;52.994;6.552;2024-01-27T04:15:19;7.63;;;1.20;;
76296;SDS011;65104;52.994;6.552;2024-01-27T04:17:45;5.97;;;1.00;;
76296;SDS011;65104;52.994;6.552;2024-01-27T04:20:12;5.45;;;1.00;;
76296;SDS011;65104;52.994;6.552;2024-01-27T04:22:39;3.13;;;0.98;;
76296;SDS011;65104;52.994;6.552;2024-01-27T04:25:07;2.25;;;1.23;;
76296;SDS011;65104;52.994;6.552;2024-01-27T04:27:36;5.15;;;1.33;;
76296;SDS011;65104;52.994;6.552;2024-01-27T04:30:05;6.72;;;1.55;;
76296;SDS011;65104;52.994;6.552;2024-01-27T04:32:32;8.00;;;1.33;;
76296;SDS011;65104;52.994;6.552;2024-01-27T04:34:59;8.25;;;1.92;;
76296;SDS011;65104;52.994;6.552;2024-01-27T04:37:25;5.03;;;1.40;;
76296;SDS011;65104;52.994;6.552;2024-01-27T04:39:52;6.63;;;1.20;;
76296;SDS011;65104;52.994;6.552;2024-01-27T04:42:20;4.78;;;1.15;;
76296;SDS011;65104;52.994;6.552;2024-01-27T04:44:46;7.57;;;1.63;;
76296;SDS011;65104;52.994;6.552;2024-01-27T04:47:13;3.75;;;0.80;;
76296;SDS011;65104;52.994;6.552;2024-01-27T04:49:40;5.47;;;1.20;;
76296;SDS011;65104;52.994;6.552;2024-01-27T04:52:06;5.55;;;1.17;;
76296;SDS011;65104;52.994;6.552;2024-01-27T04:54:33;10.30;;;1.30;;
76296;SDS011;65104;52.994;6.552;2024-01-27T04:57:02;6.53;;;1.65;;
76296;SDS011;65104;52.994;6.552;2024-01-27T04:59:31;9.65;;;1.55;;
76296;SDS011;65104;52.994;6.552;2024-01-27T05:01:58;11.90;;;2.28;;
76296;SDS011;65104;52.994;6.552;2024-01-27T05:04:24;4.80;;;1.88;;
76296;SDS011;65104;52.994;6.552;2024-01-27T05:06:52;6.80;;;1.40;;
76296;SDS011;65104;52.994;6.552;2024-01-27T05:09:18;6.32;;;1.42;;
76296;SDS011;65104;52.994;6.552;2024-01-27T05:11:45;10.30;;;1.38;;
76296;SDS011;65104;52.994;6.552;2024-01-27T05:14:13;1.67;;;0.93;;
76296;SDS011;65104;52.994;6.552;2024-01-27T05:16:41;5.63;;;0.80;;
76296;SDS011;65104;52.994;6.552;2024-01-27T05:19:07;4.20;;;1.00;;
76296;SDS011;65104;52.994;6.552;2024-01-27T05:21:34;4.25;;;1.23;;
76296;SDS011;65104;52.994;6.552;2024-01-27T05:24:01;9.57;;;1.88;;
76296;SDS011;65104;52.994;6.552;2024-01-27T05:26:27;3.17;;;0.90;;
76296;SDS011;65104;52.994;6.552;2024-01-27T05:28:54;5.05;;;1.35;;
76296;SDS011;65104;52.994;6.552;2024-01-27T05:31:21;3.88;;;0.80;;
76296;SDS011;65104;52.994;6.552;2024-01-27T05:33:49;8.05;;;2.40;;
76296;SDS011;65104;52.994;6.552;2024-01-27T05:36:15;8.77;;;1.77;;
76296;SDS011;65104;52.994;6.552;2024-01-27T05:38:42;8.73;;;1.38;;
76296;SDS011;65104;52.994;6.552;2024-01-27T05:41:09;6.53;;;1.80;;
76296;SDS011;65104;52.994;6.552;2024-01-27T05:43:35;8.32;;;1.17;;
76296;SDS011;65104;52.994;6.552;2024-01-27T05:46:02;6.10;;;1.48;;
76296;SDS011;65104;52.994;6.552;2024-01-27T05:48:29;2.58;;;1.08;;
76296;SDS011;65104;52.994;6.552;2024-01-27T05:50:57;5.25;;;1.85;;
76296;SDS011;65104;52.994;6.552;2024-01-27T05:53:25;3.90;;;1.30;;
76296;SDS011;65104;52.994;6.552;2024-01-27T05:55:52;5.30;;;1.42;;
76296;SDS011;65104;52.994;6.552;2024-01-27T05:58:19;11.02;;;1.05;;
76296;SDS011;65104;52.994;6.552;2024-01-27T06:00:46;3.22;;;1.30;;
76296;SDS011;65104;52.994;6.552;2024-01-27T06:03:13;3.63;;;0.98;;
76296;SDS011;65104;52.994;6.552;2024-01-27T06:05:42;4.15;;;1.25;;
76296;SDS011;65104;52.994;6.552;2024-01-27T06:08:10;6.35;;;1.67;;
76296;SDS011;65104;52.994;6.552;2024-01-27T06:13:03;7.28;;;1.27;;
76296;SDS011;65104;52.994;6.552;2024-01-27T06:15:30;4.95;;;2.03;;
76296;SDS011;65104;52.994;6.552;2024-01-27T06:17:56;6.78;;;1.60;;
76296;SDS011;65104;52.994;6.552;2024-01-27T06:20:23;4.93;;;1.02;;
76296;SDS011;65104;52.994;6.552;2024-01-27T06:22:50;5.28;;;1.48;;
76296;SDS011;65104;52.994;6.552;2024-01-27T06:25:18;7.07;;;1.35;;
76296;SDS011;65104;52.994;6.552;2024-01-27T06:30:12;5.75;;;0.90;;
76296;SDS011;65104;52.994;6.552;2024-01-27T06:32:39;1.92;;;1.40;;
76296;SDS011;65104;52.994;6.552;2024-01-27T06:35:06;5.25;;;1.58;;
76296;SDS011;65104;52.994;6.552;2024-01-27T06:37:33;4.28;;;1.70;;
76296;SDS011;65104;52.994;6.552;2024-01-27T06:40:00;7.60;;;1.70;;
76296;SDS011;65104;52.994;6.552;2024-01-27T06:42:28;5.30;;;1.50;;
76296;SDS011;65104;52.994;6.552;2024-01-27T06:44:54;7.13;;;1.98;;
76296;SDS011;65104;52.994;6.552;2024-01-27T06:47:21;3.70;;;1.85;;
76296;SDS011;65104;52.994;6.552;2024-01-27T06:49:48;2.70;;;1.25;;
76296;SDS011;65104;52.994;6.552;2024-01-27T06:52:14;1.52;;;0.93;;
76296;SDS011;65104;52.994;6.552;2024-01-27T06:54:41;4.25;;;1.63;;
76296;SDS011;65104;52.994;6.552;2024-01-27T06:57:17;5.57;;;1.77;;
76296;SDS011;65104;52.994;6.552;2024-01-27T06:59:46;9.23;;;1.98;;
76296;SDS011;65104;52.994;6.552;2024-01-27T07:02:17;5.68;;;1.73;;
76296;SDS011;65104;52.994;6.552;2024-01-27T07:04:44;7.68;;;2.50;;
76296;SDS011;65104;52.994;6.552;2024-01-27T07:07:11;8.20;;;1.77;;
76296;SDS011;65104;52.994;6.552;2024-01-27T07:09:37;8.45;;;2.10;;
76296;SDS011;65104;52.994;6.552;2024-01-27T07:12:04;5.57;;;1.35;;
76296;SDS011;65104;52.994;6.552;2024-01-27T07:14:31;1.20;;;1.02;;
76296;SDS011;65104;52.994;6.552;2024-01-27T07:16:59;6.90;;;1.70;;
76296;SDS011;65104;52.994;6.552;2024-01-27T07:19:26;7.43;;;2.05;;
76296;SDS011;65104;52.994;6.552;2024-01-27T07:21:53;6.50;;;2.17;;
76296;SDS011;65104;52.994;6.552;2024-01-27T07:24:19;4.90;;;1.50;;
76296;SDS011;65104;52.994;6.552;2024-01-27T07:26:46;5.10;;;1.65;;
76296;SDS011;65104;52.994;6.552;2024-01-27T07:29:13;5.25;;;1.55;;
76296;SDS011;65104;52.994;6.552;2024-01-27T07:31:39;6.40;;;1.55;;
76296;SDS011;65104;52.994;6.552;2024-01-27T07:34:07;4.63;;;2.20;;
76296;SDS011;65104;52.994;6.552;2024-01-27T07:36:34;6.20;;;1.88;;
76296;SDS011;65104;52.994;6.552;2024-01-27T07:39:01;11.35;;;2.75;;
76296;SDS011;65104;52.994;6.552;2024-01-27T07:41:29;5.95;;;2.40;;
76296;SDS011;65104;52.994;6.552;2024-01-27T07:43:56;6.75;;;2.42;;
76296;SDS011;65104;52.994;6.552;2024-01-27T07:46:23;7.35;;;2.80;;
76296;SDS011;65104;52.994;6.552;2024-01-27T07:48:50;7.55;;;3.42;;
76296;SDS011;65104;52.994;6.552;2024-01-27T07:51:18;7.82;;;4.43;;
76296;SDS011;65104;52.994;6.552;2024-01-27T07:53:44;9.98;;;3.03;;
76296;SDS011;65104;52.994;6.552;2024-01-27T07:56:11;12.63;;;3.67;;
76296;SDS011;65104;52.994;6.552;2024-01-27T07:58:38;9.63;;;3.10;;
76296;SDS011;65104;52.994;6.552;2024-01-27T08:01:04;11.10;;;3.67;;
76296;SDS011;65104;52.994;6.552;2024-01-27T08:03:31;9.35;;;3.58;;
76296;SDS011;65104;52.994;6.552;2024-01-27T08:05:57;10.55;;;4.00;;
76296;SDS011;65104;52.994;6.552;2024-01-27T08:08:26;9.15;;;4.18;;
76296;SDS011;65104;52.994;6.552;2024-01-27T08:10:52;7.80;;;3.15;;
76296;SDS011;65104;52.994;6.552;2024-01-27T08:13:19;8.60;;;4.00;;
76296;SDS011;65104;52.994;6.552;2024-01-27T08:15:45;15.43;;;4.20;;
76296;SDS011;65104;52.994;6.552;2024-01-27T08:18:12;11.43;;;3.45;;
76296;SDS011;65104;52.994;6.552;2024-01-27T08:20:38;8.95;;;4.30;;
76296;SDS011;65104;52.994;6.552;2024-01-27T08:23:05;10.18;;;3.85;;
76296;SDS011;65104;52.994;6.552;2024-01-27T08:25:34;12.07;;;3.45;;
76296;SDS011;65104;52.994;6.552;2024-01-27T08:30:28;8.93;;;3.70;;
76296;SDS011;65104;52.994;6.552;2024-01-27T08:32:55;10.23;;;4.05;;
76296;SDS011;65104;52.994;6.552;2024-01-27T08:35:22;8.43;;;3.80;;
76296;SDS011;65104;52.994;6.552;2024-01-27T08:37:49;9.73;;;4.68;;
76296;SDS011;65104;52.994;6.552;2024-01-27T08:40:15;13.32;;;5.03;;
76296;SDS011;65104;52.994;6.552;2024-01-27T08:42:43;11.68;;;3.95;;
76296;SDS011;65104;52.994;6.552;2024-01-27T08:45:10;8.02;;;4.88;;
76296;SDS011;65104;52.994;6.552;2024-01-27T08:47:37;7.35;;;4.35;;
76296;SDS011;65104;52.994;6.552;2024-01-27T08:50:04;6.35;;;4.10;;
76296;SDS011;65104;52.994;6.552;2024-01-27T08:54:58;6.30;;;3.25;;
76296;SDS011;65104;52.994;6.552;2024-01-27T08:57:24;5.53;;;3.63;;
76296;SDS011;65104;52.994;6.552;2024-01-27T08:59:52;7.30;;;4.15;;
76296;SDS011;65104;52.994;6.552;2024-01-27T09:04:45;5.60;;;3.38;;
76296;SDS011;65104;52.994;6.552;2024-01-27T09:07:12;6.85;;;4.72;;
76296;SDS011;65104;52.994;6.552;2024-01-27T09:09:39;9.93;;;4.90;;
76296;SDS011;65104;52.994;6.552;2024-01-27T09:12:05;8.75;;;4.85;;
76296;SDS011;65104;52.994;6.552;2024-01-27T09:14:32;12.35;;;4.80;;
76296;SDS011;65104;52.994;6.552;2024-01-27T09:17:01;17.40;;;4.72;;
76296;SDS011;65104;52.994;6.552;2024-01-27T09:19:27;8.38;;;4.22;;
76296;SDS011;65104;52.994;6.552;2024-01-27T09:21:54;8.02;;;3.88;;
76296;SDS011;65104;52.994;6.552;2024-01-27T09:24:21;12.55;;;4.05;;
76296;SDS011;65104;52.994;6.552;2024-01-27T09:26:48;8.52;;;4.05;;
76296;SDS011;65104;52.994;6.552;2024-01-27T09:29:14;6.47;;;3.40;;
76296;SDS011;65104;52.994;6.552;2024-01-27T09:31:41;7.95;;;3.80;;
76296;SDS011;65104;52.994;6.552;2024-01-27T09:34:09;10.40;;;4.45;;
76296;SDS011;65104;52.994;6.552;2024-01-27T09:39:02;10.80;;;4.88;;
76296;SDS011;65104;52.994;6.552;2024-01-27T09:41:29;9.63;;;4.80;;
76296;SDS011;65104;52.994;6.552;2024-01-27T09:43:58;8.13;;;4.18;;
76296;SDS011;65104;52.994;6.552;2024-01-27T09:46:28;10.82;;;4.38;;
76296;SDS011;65104;52.994;6.552;2024-01-27T09:48:55;8.73;;;3.78;;
76296;SDS011;65104;52.994;6.552;2024-01-27T09:51:24;8.95;;;3.75;;
76296;SDS011;65104;52.994;6.552;2024-01-27T09:53:51;6.35;;;3.42;;
76296;SDS011;65104;52.994;6.552;2024-01-27T09:56:18;7.97;;;4.97;;
76296;SDS011;65104;52.994;6.552;2024-01-27T09:58:46;6.10;;;3.55;;
76296;SDS011;65104;52.994;6.552;2024-01-27T10:01:15;8.60;;;4.47;;
76296;SDS011;65104;52.994;6.552;2024-01-27T10:03:42;9.23;;;4.28;;
76296;SDS011;65104;52.994;6.552;2024-01-27T10:06:09;12.07;;;5.18;;
76296;SDS011;65104;52.994;6.552;2024-01-27T10:08:38;11.38;;;4.50;;
76296;SDS011;65104;52.994;6.552;2024-01-27T10:11:06;7.35;;;3.83;;
76296;SDS011;65104;52.994;6.552;2024-01-27T10:13:33;9.30;;;4.30;;
76296;SDS011;65104;52.994;6.552;2024-01-27T10:16:00;10.30;;;3.83;;
76296;SDS011;65104;52.994;6.552;2024-01-27T10:18:28;13.48;;;4.03;;
76296;SDS011;65104;52.994;6.552;2024-01-27T10:20:55;8.73;;;3.53;;
76296;SDS011;65104;52.994;6.552;2024-01-27T10:23:22;7.00;;;3.42;;
76296;SDS011;65104;52.994;6.552;2024-01-27T10:25:50;10.40;;;4.18;;
76296;SDS011;65104;52.994;6.552;2024-01-27T10:28:17;6.57;;;4.30;;
76296;SDS011;65104;52.994;6.552;2024-01-27T10:30:44;8.50;;;3.75;;
76296;SDS011;65104;52.994;6.552;2024-01-27T10:33:13;10.02;;;3.45;;
76296;SDS011;65104;52.994;6.552;2024-01-27T10:35:40;11.25;;;4.35;;
76296;SDS011;65104;52.994;6.552;2024-01-27T10:38:06;9.25;;;3.90;;
76296;SDS011;65104;52.994;6.552;2024-01-27T10:40:34;8.38;;;3.47;;
76296;SDS011;65104;52.994;6.552;2024-01-27T10:43:03;10.63;;;4.00;;
76296;SDS011;65104;52.994;6.552;2024-01-27T10:45:34;6.80;;;3.42;;
76296;SDS011;65104;52.994;6.552;2024-01-27T10:48:02;7.07;;;3.42;;
76296;SDS011;65104;52.994;6.552;2024-01-27T10:50:31;10.18;;;3.17;;
76296;SDS011;65104;52.994;6.552;2024-01-27T10:53:02;5.50;;;3.72;;
76296;SDS011;65104;52.994;6.552;2024-01-27T10:55:30;7.38;;;2.60;;
76296;SDS011;65104;52.994;6.552;2024-01-27T10:57:57;11.40;;;4.28;;
76296;SDS011;65104;52.994;6.552;2024-01-27T11:00:28;8.65;;;3.10;;
76296;SDS011;65104;52.994;6.552;2024-01-27T11:02:56;10.70;;;4.00;;
76296;SDS011;65104;52.994;6.552;2024-01-27T11:05:24;10.15;;;3.17;;
76296;SDS011;65104;52.994;6.552;2024-01-27T11:07:55;7.65;;;4.13;;
76296;SDS011;65104;52.994;6.552;2024-01-27T11:10:22;4.20;;;2.67;;
76296;SDS011;65104;52.994;6.552;2024-01-27T11:12:50;13.88;;;3.70;;
76296;SDS011;65104;52.994;6.552;2024-01-27T11:15:20;6.78;;;2.83;;
76296;SDS011;65104;52.994;6.552;2024-01-27T11:17:48;6.60;;;3.00;;
76296;SDS011;65104;52.994;6.552;2024-01-27T11:20:15;7.28;;;3.92;;
76296;SDS011;65104;52.994;6.552;2024-01-27T11:22:42;7.00;;;3.25;;
76296;SDS011;65104;52.994;6.552;2024-01-27T11:25:14;9.90;;;2.92;;
76296;SDS011;65104;52.994;6.552;2024-01-27T11:27:43;5.55;;;2.88;;
76296;SDS011;65104;52.994;6.552;2024-01-27T11:30:24;11.20;;;3.30;;
76296;SDS011;65104;52.994;6.552;2024-01-27T11:32:54;8.20;;;2.53;;
76296;SDS011;65104;52.994;6.552;2024-01-27T11:35:21;8.35;;;2.95;;
76296;SDS011;65104;52.994;6.552;2024-01-27T11:37:47;7.40;;;3.15;;
76296;SDS011;65104;52.994;6.552;2024-01-27T11:40:14;6.03;;;3.05;;
76296;SDS011;65104;52.994;6.552;2024-01-27T11:42:41;7.25;;;2.75;;
76296;SDS011;65104;52.994;6.552;2024-01-27T11:45:08;5.47;;;2.30;;
76296;SDS011;65104;52.994;6.552;2024-01-27T11:47:35;8.70;;;3.05;;
76296;SDS011;65104;52.994;6.552;2024-01-27T11:50:03;5.35;;;2.15;;
76296;SDS011;65104;52.994;6.552;2024-01-27T11:52:30;8.00;;;2.95;;
76296;SDS011;65104;52.994;6.552;2024-01-27T11:54:57;6.30;;;2.17;;
76296;SDS011;65104;52.994;6.552;2024-01-27T11:57:25;8.95;;;2.53;;
76296;SDS011;65104;52.994;6.552;2024-01-27T12:02:18;10.73;;;3.05;;
76296;SDS011;65104;52.994;6.552;2024-01-27T12:04:45;10.85;;;3.08;;
76296;SDS011;65104;52.994;6.552;2024-01-27T12:07:15;10.90;;;4.30;;
76296;SDS011;65104;52.994;6.552;2024-01-27T12:09:43;9.85;;;2.97;;
76296;SDS011;65104;52.994;6.552;2024-01-27T12:12:10;13.80;;;4.05;;
76296;SDS011;65104;52.994;6.552;2024-01-27T12:14:39;7.63;;;3.05;;
76296;SDS011;65104;52.994;6.552;2024-01-27T12:17:08;15.00;;;4.60;;
76296;SDS011;65104;52.994;6.552;2024-01-27T12:19:35;7.63;;;2.97;;
76296;SDS011;65104;52.994;6.552;2024-01-27T12:22:01;8.85;;;2.58;;
76296;SDS011;65104;52.994;6.552;2024-01-27T12:24:30;9.57;;;2.70;;
76296;SDS011;65104;52.994;6.552;2024-01-27T12:26:57;4.43;;;1.65;;
76296;SDS011;65104;52.994;6.552;2024-01-27T12:29:25;10.48;;;2.95;;
76296;SDS011;65104;52.994;6.552;2024-01-27T12:31:53;5.68;;;2.22;;
76296;SDS011;65104;52.994;6.552;2024-01-27T12:34:20;4.60;;;2.17;;
76296;SDS011;65104;52.994;6.552;2024-01-27T12:36:47;8.15;;;2.08;;
76296;SDS011;65104;52.994;6.552;2024-01-27T12:39:14;4.00;;;2.47;;
76296;SDS011;65104;52.994;6.552;2024-01-27T12:41:42;9.05;;;2.75;;
76296;SDS011;65104;52.994;6.552;2024-01-27T12:44:09;7.68;;;2.28;;
76296;SDS011;65104;52.994;6.552;2024-01-27T12:46:36;5.07;;;2.10;;
76296;SDS011;65104;52.994;6.552;2024-01-27T12:49:02;8.05;;;2.80;;
76296;SDS011;65104;52.994;6.552;2024-01-27T12:51:30;7.10;;;2.10;;
76296;SDS011;65104;52.994;6.552;2024-01-27T12:53:57;10.43;;;2.83;;
76296;SDS011;65104;52.994;6.552;2024-01-27T12:56:23;10.55;;;2.50;;
76296;SDS011;65104;52.994;6.552;2024-01-27T12:58:51;9.55;;;2.78;;
76296;SDS011;65104;52.994;6.552;2024-01-27T13:01:18;5.88;;;1.85;;
76296;SDS011;65104;52.994;6.552;2024-01-27T13:03:45;5.72;;;2.33;;
76296;SDS011;65104;52.994;6.552;2024-01-27T13:06:12;6.00;;;2.17;;
76296;SDS011;65104;52.994;6.552;2024-01-27T13:08:39;7.28;;;2.05;;
76296;SDS011;65104;52.994;6.552;2024-01-27T13:11:06;5.88;;;1.63;;
76296;SDS011;65104;52.994;6.552;2024-01-27T13:13:33;6.80;;;1.90;;
76296;SDS011;65104;52.994;6.552;2024-01-27T13:16:01;9.82;;;1.95;;
76296;SDS011;65104;52.994;6.552;2024-01-27T13:18:27;8.00;;;2.17;;
76296;SDS011;65104;52.994;6.552;2024-01-27T13:20:54;7.63;;;2.13;;
76296;SDS011;65104;52.994;6.552;2024-01-27T13:23:21;5.80;;;1.77;;
76296;SDS011;65104;52.994;6.552;2024-01-27T13:25:47;10.70;;;2.40;;
76296;SDS011;65104;52.994;6.552;2024-01-27T13:28:14;7.35;;;2.20;;
76296;SDS011;65104;52.994;6.552;2024-01-27T13:30:41;3.67;;;1.63;;
76296;SDS011;65104;52.994;6.552;2024-01-27T13:33:09;6.38;;;1.88;;
76296;SDS011;65104;52.994;6.552;2024-01-27T13:35:36;5.25;;;1.63;;
76296;SDS011;65104;52.994;6.552;2024-01-27T13:38:05;7.45;;;1.40;;
76296;SDS011;65104;52.994;6.552;2024-01-27T13:40:31;5.10;;;1.80;;
76296;SDS011;65104;52.994;6.552;2024-01-27T13:42:58;3.50;;;1.40;;
76296;SDS011;65104;52.994;6.552;2024-01-27T13:45:25;6.15;;;1.92;;
76296;SDS011;65104;52.994;6.552;2024-01-27T13:47:51;8.35;;;1.92;;
76296;SDS011;65104;52.994;6.552;2024-01-27T13:50:20;8.18;;;2.80;;
76296;SDS011;65104;52.994;6.552;2024-01-27T13:52:46;4.88;;;2.03;;
76296;SDS011;65104;52.994;6.552;2024-01-27T13:55:13;5.07;;;1.80;;
76296;SDS011;65104;52.994;6.552;2024-01-27T13:57:40;6.40;;;1.98;;
76296;SDS011;65104;52.994;6.552;2024-01-27T14:00:07;7.22;;;1.92;;
76296;SDS011;65104;52.994;6.552;2024-01-27T14:02:35;9.75;;;2.47;;
76296;SDS011;65104;52.994;6.552;2024-01-27T14:05:01;6.35;;;2.25;;
76296;SDS011;65104;52.994;6.552;2024-01-27T14:07:30;7.60;;;1.67;;
76296;SDS011;65104;52.994;6.552;2024-01-27T14:09:58;5.90;;;1.75;;
76296;SDS011;65104;52.994;6.552;2024-01-27T14:12:24;13.05;;;1.80;;
76296;SDS011;65104;52.994;6.552;2024-01-27T14:14:51;10.70;;;2.28;;
76296;SDS011;65104;52.994;6.552;2024-01-27T14:17:18;9.60;;;2.60;;
76296;SDS011;65104;52.994;6.552;2024-01-27T14:19:45;7.53;;;2.03;;
76296;SDS011;65104;52.994;6.552;2024-01-27T14:22:12;8.43;;;2.47;;
76296;SDS011;65104;52.994;6.552;2024-01-27T14:24:40;7.13;;;2.40;;
76296;SDS011;65104;52.994;6.552;2024-01-27T14:27:07;7.45;;;1.80;;
76296;SDS011;65104;52.994;6.552;2024-01-27T14:29:35;8.30;;;2.45;;
76296;SDS011;65104;52.994;6.552;2024-01-27T14:32:02;5.07;;;1.90;;
76296;SDS011;65104;52.994;6.552;2024-01-27T14:34:29;7.68;;;2.60;;
76296;SDS011;65104;52.994;6.552;2024-01-27T14:36:55;11.45;;;2.88;;
76296;SDS011;65104;52.994;6.552;2024-01-27T14:39:23;8.27;;;2.45;;
76296;SDS011;65104;52.994;6.552;2024-01-27T14:41:51;8.18;;;2.65;;
76296;SDS011;65104;52.994;6.552;2024-01-27T14:44:17;9.68;;;2.15;;
76296;SDS011;65104;52.994;6.552;2024-01-27T14:46:44;5.45;;;2.33;;
76296;SDS011;65104;52.994;6.552;2024-01-27T14:49:10;5.82;;;2.20;;
76296;SDS011;65104;52.994;6.552;2024-01-27T14:51:37;6.15;;;2.42;;
76296;SDS011;65104;52.994;6.552;2024-01-27T14:54:04;5.18;;;2.08;;
76296;SDS011;65104;52.994;6.552;2024-01-27T14:56:31;8.52;;;1.88;;
76296;SDS011;65104;52.994;6.552;2024-01-27T14:58:59;11.80;;;2.97;;
76296;SDS011;65104;52.994;6.552;2024-01-27T15:01:26;6.50;;;2.03;;
76296;SDS011;65104;52.994;6.552;2024-01-27T15:03:53;7.82;;;2.60;;
76296;SDS011;65104;52.994;6.552;2024-01-27T15:06:20;6.30;;;2.63;;
76296;SDS011;65104;52.994;6.552;2024-01-27T15:08:47;6.53;;;2.40;;
76296;SDS011;65104;52.994;6.552;2024-01-27T15:11:14;5.15;;;1.60;;
76296;SDS011;65104;52.994;6.552;2024-01-27T15:13:40;5.30;;;2.30;;